New Jersey Trader — 9HA4050 — position and weather

sailwx.info

Track history (hours):
 
Tides and Currents Weather Stations Pressure Air Temp Water Temp Dewpoint Dewpoint Depression Visibility Wind Speed Wind Dir Waves Ship Positions

New Jersey Trader

Last reported at 2017-Nov-19 16:31 UTC. Time now 2017-Nov-22 05:39 UTC.
Position N 37°23' E 025°55'.

Length 212 m; draft 9.6 m.

Type: Ship. MMSI: 256976000.

Date/timePositionNaut miles runAvg speedWind from/ knotsBaromVisibWave heightAir tempDewpointWater temp
2017-Nov-19 16:31N 37°23' E 025°55'014.0
2017-Nov-19 16:30N 37°23' E 025°55'713.7
2017-Nov-19 16:00N 37°29' E 025°51'713.3
2017-Nov-19 15:30N 37°36' E 025°50'813.2
2017-Nov-19 14:54N 37°43' E 025°49'89 2.3
2017-Nov-17 23:47N 37°37' E 023°56'516.2
2017-Nov-17 23:27N 37°38' E 023°50'715.6
2017-Nov-17 23:01N 37°41' E 023°42'815.8
2017-Nov-17 22:31N 37°48' E 023°37'713.9
2017-Nov-17 22:00N 37°55' E 023°37'2 4.7
2017-Nov-17 21:29N 37°57' E 023°35'0 0.1
2017-Nov-17 20:59N 37°57' E 023°35'0 0.0
2017-Nov-17 20:29N 37°57' E 023°35'0 0.0
2017-Nov-17 19:59N 37°57' E 023°35'0 0.0
2017-Nov-17 19:29N 37°57' E 023°35'0 0.0
2017-Nov-17 18:59N 37°57' E 023°35'0 0.0
2017-Nov-17 18:29N 37°57' E 023°35'0 0.0
2017-Nov-17 17:59N 37°57' E 023°35'0 0.0
2017-Nov-17 17:29N 37°57' E 023°35'0 0.0
2017-Nov-17 16:59N 37°57' E 023°35'0 0.0
2017-Nov-17 16:29N 37°57' E 023°35'0 0.0
2017-Nov-17 15:59N 37°57' E 023°35'0 0.0
2017-Nov-17 15:29N 37°57' E 023°35'0 0.0
2017-Nov-17 14:59N 37°57' E 023°35'0 0.0
2017-Nov-17 14:29N 37°57' E 023°35'0 0.0
2017-Nov-17 13:59N 37°57' E 023°35'0 0.0
2017-Nov-17 13:29N 37°57' E 023°35'0 0.0
2017-Nov-17 12:59N 37°57' E 023°35'0 0.0
2017-Nov-17 12:29N 37°57' E 023°35'0 0.0
2017-Nov-17 11:59N 37°57' E 023°35'0 0.0
2017-Nov-17 11:26N 37°57' E 023°35'0 0.0
2017-Nov-17 10:59N 37°57' E 023°35'0 0.0
2017-Nov-17 10:29N 37°57' E 023°35'0 0.0
2017-Nov-17 09:59N 37°57' E 023°35'0 0.0
2017-Nov-17 09:29N 37°57' E 023°35'0 0.0
2017-Nov-17 08:59N 37°57' E 023°35'0 0.0
2017-Nov-17 08:29N 37°57' E 023°35'0 0.0
2017-Nov-17 07:59N 37°57' E 023°35'0 0.0
2017-Nov-17 07:29N 37°57' E 023°35'0 0.0
2017-Nov-17 06:59N 37°57' E 023°35'0 0.0
2017-Nov-17 06:29N 37°57' E 023°35'0 0.0
2017-Nov-17 05:59N 37°57' E 023°35'0 0.0
2017-Nov-17 05:30N 37°57' E 023°35'0 0.0
2017-Nov-17 04:59N 37°57' E 023°35'0 0.0
2017-Nov-17 04:29N 37°57' E 023°35'0 0.0
2017-Nov-17 03:59N 37°57' E 023°35'0 0.0
2017-Nov-17 03:29N 37°57' E 023°35'0 0.0
2017-Nov-17 02:59N 37°57' E 023°35'0 0.0
2017-Nov-17 02:29N 37°57' E 023°35'0 0.0
2017-Nov-17 01:59N 37°57' E 023°35'0 0.0
2017-Nov-17 01:29N 37°57' E 023°35'0 0.0
2017-Nov-17 00:59N 37°57' E 023°35'0 0.0
2017-Nov-17 00:29N 37°57' E 023°35'0 0.0
2017-Nov-16 23:59N 37°57' E 023°35'0 0.0
2017-Nov-16 23:29N 37°57' E 023°35'0 0.0
2017-Nov-16 22:59N 37°57' E 023°35'0 0.0
2017-Nov-16 22:29N 37°57' E 023°35'0 0.0
2017-Nov-16 21:59N 37°57' E 023°35'0 0.0
2017-Nov-16 21:29N 37°57' E 023°35'0 0.0
2017-Nov-16 20:59N 37°57' E 023°35'0 0.0
2017-Nov-16 20:29N 37°57' E 023°35'0 0.0
2017-Nov-16 19:59N 37°57' E 023°35'0 0.0
2017-Nov-16 19:29N 37°57' E 023°35'0 0.0
2017-Nov-16 18:59N 37°57' E 023°35'0 0.0
2017-Nov-16 18:29N 37°57' E 023°35'0 0.0
2017-Nov-16 17:59N 37°57' E 023°35'0 0.0
2017-Nov-16 17:29N 37°57' E 023°35'0 0.0
2017-Nov-16 16:59N 37°57' E 023°35'0 0.0
2017-Nov-16 16:29N 37°57' E 023°35'0 0.0
2017-Nov-16 15:59N 37°57' E 023°35'0 0.0
2017-Nov-16 15:29N 37°57' E 023°35'0 0.0
2017-Nov-16 14:59N 37°57' E 023°35'0 0.0
2017-Nov-16 14:29N 37°57' E 023°35'0 0.0
2017-Nov-16 13:59N 37°57' E 023°35'0 0.0
2017-Nov-16 13:29N 37°57' E 023°35'0 0.1
2017-Nov-16 13:00N 37°57' E 023°35'2 3.4
2017-Nov-16 12:30N 37°56' E 023°35'3 6.9
2017-Nov-16 12:00N 37°52' E 023°33'2 3.6
2017-Nov-16 11:30N 37°51' E 023°32'0 0.1
2017-Nov-16 11:00N 37°51' E 023°31'0 0.1
2017-Nov-16 10:30N 37°51' E 023°31'0 0.3
2017-Nov-16 10:00N 37°51' E 023°32'0 0.1
2017-Nov-16 09:30N 37°51' E 023°32'0 0.2
2017-Nov-16 09:00N 37°51' E 023°32'0 0.3
2017-Nov-16 08:30N 37°51' E 023°31'0 0.2
2017-Nov-16 08:00N 37°51' E 023°32'0 0.2
2017-Nov-16 07:30N 37°51' E 023°32'0 0.5
2017-Nov-16 07:00N 37°51' E 023°31'0 0.0
2017-Nov-16 06:30N 37°51' E 023°31'0 0.0
2017-Nov-16 06:00N 37°51' E 023°31'0 0.1
2017-Nov-16 05:30N 37°51' E 023°31'0 0.0
2017-Nov-16 05:00N 37°51' E 023°31'0 0.0
2017-Nov-16 04:30N 37°51' E 023°31'0 0.1
2017-Nov-16 04:00N 37°51' E 023°31'0 0.0
2017-Nov-16 03:30N 37°51' E 023°31'0 0.0
2017-Nov-16 03:00N 37°51' E 023°31'0 0.1
2017-Nov-16 02:30N 37°51' E 023°31'0 0.1
2017-Nov-16 02:00N 37°51' E 023°31'0 0.1
2017-Nov-16 01:27N 37°51' E 023°31'0 0.0
2017-Nov-16 01:00N 37°51' E 023°31'0 0.1
2017-Nov-16 00:30N 37°51' E 023°31'0 0.0
2017-Nov-16 00:00N 37°51' E 023°31'0 0.1
2017-Nov-15 23:30N 37°51' E 023°31'0 0.0
2017-Nov-15 23:00N 37°51' E 023°31'0 0.0
2017-Nov-15 22:30N 37°51' E 023°31'0 0.0
2017-Nov-15 22:00N 37°51' E 023°31'0 0.0
2017-Nov-15 21:30N 37°51' E 023°31'0 0.1
2017-Nov-15 21:00N 37°51' E 023°31'0 0.1
2017-Nov-15 20:30N 37°51' E 023°31'0 0.1
2017-Nov-15 20:00N 37°51' E 023°31'0 0.1
2017-Nov-15 19:30N 37°51' E 023°31'0 0.0
2017-Nov-15 19:00N 37°51' E 023°31'0 0.0
2017-Nov-15 18:30N 37°51' E 023°31'0 0.0
2017-Nov-15 18:00N 37°51' E 023°31'0 0.0
2017-Nov-15 17:30N 37°51' E 023°31'0 0.2
2017-Nov-15 17:00N 37°51' E 023°31'0 0.0
2017-Nov-15 16:30N 37°51' E 023°31'0 0.1
2017-Nov-15 16:00N 37°51' E 023°31'0 0.0
2017-Nov-15 15:30N 37°51' E 023°31'0 0.1
2017-Nov-15 15:00N 37°51' E 023°32'0 0.0
2017-Nov-15 14:30N 37°51' E 023°32'0 0.1
2017-Nov-15 14:00N 37°51' E 023°32'0 0.0
2017-Nov-15 13:30N 37°51' E 023°32'0 0.3
2017-Nov-15 13:00N 37°51' E 023°32'0 0.1
2017-Nov-15 12:30N 37°51' E 023°32'0 0.0
2017-Nov-15 12:00N 37°51' E 023°32'0 0.3
2017-Nov-15 11:30N 37°51' E 023°32'0 0.4
2017-Nov-15 11:01N 37°51' E 023°31'0 0.0
2017-Nov-15 10:30N 37°51' E 023°32'0 0.0
2017-Nov-15 10:00N 37°51' E 023°31'0 0.0
2017-Nov-15 09:30N 37°51' E 023°31'0 0.1
2017-Nov-15 09:00N 37°51' E 023°31'0 0.1
2017-Nov-15 08:31N 37°51' E 023°31'0 0.1
2017-Nov-15 08:01N 37°51' E 023°31'0 0.1
2017-Nov-15 07:30N 37°51' E 023°31'0 0.1
2017-Nov-15 07:00N 37°51' E 023°31'0 0.1
2017-Nov-15 06:30N 37°51' E 023°31'0 0.1
2017-Nov-15 06:00N 37°51' E 023°31'0 0.2
2017-Nov-15 05:30N 37°51' E 023°31'0 0.1
2017-Nov-15 05:00N 37°51' E 023°31'0 0.1
2017-Nov-15 04:30N 37°51' E 023°31'0 0.2
2017-Nov-15 04:00N 37°51' E 023°32'2 3.8
2017-Nov-15 03:30N 37°51' E 023°34'3 6.8
2017-Nov-15 03:01N 37°51' E 023°38'4 8.5
2017-Nov-15 02:31N 37°47' E 023°41'5 9.3
2017-Nov-15 02:01N 37°43' E 023°44'5 9.9
2017-Nov-15 01:31N 37°39' E 023°46'510.0
2017-Nov-15 01:01N 37°34' E 023°48'  
2017-Nov-10 15:52N 32°57' E 034°38'410.2
2017-Nov-10 15:27N 32°57' E 034°43'510.4
2017-Nov-10 15:00N 32°56' E 034°49'510.8
2017-Nov-10 14:30N 32°54' E 034°55'611.5
2017-Nov-10 13:59N 32°51' E 035°01'8 0.4
2017-Nov-09 17:01N 32°53' E 034°52'0 9.6
2017-Nov-09 17:00N 32°53' E 034°52'  
Track history (hours):
 
Tides and Currents Weather Stations Pressure Air Temp Water Temp Dewpoint Dewpoint Depression Visibility Wind Speed Wind Dir Waves Ship Positions

New Jersey Trader

Last reported at 2017-Nov-19 16:31 UTC. Time now 2017-Nov-22 05:39 UTC.
Position N 37°23' E 025°55'.

Length 212 m; draft 9.6 m.

Type: Ship. MMSI: 256976000.

Date/timePositionNaut miles runAvg speedWind from/ knotsBaromVisibWave heightAir tempDewpointWater temp
2017-Nov-19 16:31N 37°23' E 025°55'014.0
2017-Nov-19 16:30N 37°23' E 025°55'713.7
2017-Nov-19 16:00N 37°29' E 025°51'713.3
2017-Nov-19 15:30N 37°36' E 025°50'813.2
2017-Nov-19 14:54N 37°43' E 025°49'89 2.3
2017-Nov-17 23:47N 37°37' E 023°56'516.2
2017-Nov-17 23:27N 37°38' E 023°50'715.6
2017-Nov-17 23:01N 37°41' E 023°42'815.8
2017-Nov-17 22:31N 37°48' E 023°37'713.9
2017-Nov-17 22:00N 37°55' E 023°37'2 4.7
2017-Nov-17 21:29N 37°57' E 023°35'0 0.1
2017-Nov-17 20:59N 37°57' E 023°35'0 0.0
2017-Nov-17 20:29N 37°57' E 023°35'0 0.0
2017-Nov-17 19:59N 37°57' E 023°35'0 0.0
2017-Nov-17 19:29N 37°57' E 023°35'0 0.0
2017-Nov-17 18:59N 37°57' E 023°35'0 0.0
2017-Nov-17 18:29N 37°57' E 023°35'0 0.0
2017-Nov-17 17:59N 37°57' E 023°35'0 0.0
2017-Nov-17 17:29N 37°57' E 023°35'0 0.0
2017-Nov-17 16:59N 37°57' E 023°35'0 0.0
2017-Nov-17 16:29N 37°57' E 023°35'0 0.0
2017-Nov-17 15:59N 37°57' E 023°35'0 0.0
2017-Nov-17 15:29N 37°57' E 023°35'0 0.0
2017-Nov-17 14:59N 37°57' E 023°35'0 0.0
2017-Nov-17 14:29N 37°57' E 023°35'0 0.0
2017-Nov-17 13:59N 37°57' E 023°35'0 0.0
2017-Nov-17 13:29N 37°57' E 023°35'0 0.0
2017-Nov-17 12:59N 37°57' E 023°35'0 0.0
2017-Nov-17 12:29N 37°57' E 023°35'0 0.0
2017-Nov-17 11:59N 37°57' E 023°35'0 0.0
2017-Nov-17 11:26N 37°57' E 023°35'0 0.0
2017-Nov-17 10:59N 37°57' E 023°35'0 0.0
2017-Nov-17 10:29N 37°57' E 023°35'0 0.0
2017-Nov-17 09:59N 37°57' E 023°35'0 0.0
2017-Nov-17 09:29N 37°57' E 023°35'0 0.0
2017-Nov-17 08:59N 37°57' E 023°35'0 0.0
2017-Nov-17 08:29N 37°57' E 023°35'0 0.0
2017-Nov-17 07:59N 37°57' E 023°35'0 0.0
2017-Nov-17 07:29N 37°57' E 023°35'0 0.0
2017-Nov-17 06:59N 37°57' E 023°35'0 0.0
2017-Nov-17 06:29N 37°57' E 023°35'0 0.0
2017-Nov-17 05:59N 37°57' E 023°35'0 0.0
2017-Nov-17 05:30N 37°57' E 023°35'0 0.0
2017-Nov-17 04:59N 37°57' E 023°35'0 0.0
2017-Nov-17 04:29N 37°57' E 023°35'0 0.0
2017-Nov-17 03:59N 37°57' E 023°35'0 0.0
2017-Nov-17 03:29N 37°57' E 023°35'0 0.0
2017-Nov-17 02:59N 37°57' E 023°35'0 0.0
2017-Nov-17 02:29N 37°57' E 023°35'0 0.0
2017-Nov-17 01:59N 37°57' E 023°35'0 0.0
2017-Nov-17 01:29N 37°57' E 023°35'0 0.0
2017-Nov-17 00:59N 37°57' E 023°35'0 0.0
2017-Nov-17 00:29N 37°57' E 023°35'0 0.0
2017-Nov-16 23:59N 37°57' E 023°35'0 0.0
2017-Nov-16 23:29N 37°57' E 023°35'0 0.0
2017-Nov-16 22:59N 37°57' E 023°35'0 0.0
2017-Nov-16 22:29N 37°57' E 023°35'0 0.0
2017-Nov-16 21:59N 37°57' E 023°35'0 0.0
2017-Nov-16 21:29N 37°57' E 023°35'0 0.0
2017-Nov-16 20:59N 37°57' E 023°35'0 0.0
2017-Nov-16 20:29N 37°57' E 023°35'0 0.0
2017-Nov-16 19:59N 37°57' E 023°35'0 0.0
2017-Nov-16 19:29N 37°57' E 023°35'0 0.0
2017-Nov-16 18:59N 37°57' E 023°35'0 0.0
2017-Nov-16 18:29N 37°57' E 023°35'0 0.0
2017-Nov-16 17:59N 37°57' E 023°35'0 0.0
2017-Nov-16 17:29N 37°57' E 023°35'0 0.0
2017-Nov-16 16:59N 37°57' E 023°35'0 0.0
2017-Nov-16 16:29N 37°57' E 023°35'0 0.0
2017-Nov-16 15:59N 37°57' E 023°35'0 0.0
2017-Nov-16 15:29N 37°57' E 023°35'0 0.0
2017-Nov-16 14:59N 37°57' E 023°35'0 0.0
2017-Nov-16 14:29N 37°57' E 023°35'0 0.0
2017-Nov-16 13:59N 37°57' E 023°35'0 0.0
2017-Nov-16 13:29N 37°57' E 023°35'0 0.1
2017-Nov-16 13:00N 37°57' E 023°35'2 3.4
2017-Nov-16 12:30N 37°56' E 023°35'3 6.9
2017-Nov-16 12:00N 37°52' E 023°33'2 3.6
2017-Nov-16 11:30N 37°51' E 023°32'0 0.1
2017-Nov-16 11:00N 37°51' E 023°31'0 0.1
2017-Nov-16 10:30N 37°51' E 023°31'0 0.3
2017-Nov-16 10:00N 37°51' E 023°32'0 0.1
2017-Nov-16 09:30N 37°51' E 023°32'0 0.2
2017-Nov-16 09:00N 37°51' E 023°32'0 0.3
2017-Nov-16 08:30N 37°51' E 023°31'0 0.2
2017-Nov-16 08:00N 37°51' E 023°32'0 0.2
2017-Nov-16 07:30N 37°51' E 023°32'0 0.5
2017-Nov-16 07:00N 37°51' E 023°31'0 0.0
2017-Nov-16 06:30N 37°51' E 023°31'0 0.0
2017-Nov-16 06:00N 37°51' E 023°31'0 0.1
2017-Nov-16 05:30N 37°51' E 023°31'0 0.0
2017-Nov-16 05:00N 37°51' E 023°31'0 0.0
2017-Nov-16 04:30N 37°51' E 023°31'0 0.1
2017-Nov-16 04:00N 37°51' E 023°31'0 0.0
2017-Nov-16 03:30N 37°51' E 023°31'0 0.0
2017-Nov-16 03:00N 37°51' E 023°31'0 0.1
2017-Nov-16 02:30N 37°51' E 023°31'0 0.1
2017-Nov-16 02:00N 37°51' E 023°31'0 0.1
2017-Nov-16 01:27N 37°51' E 023°31'0 0.0
2017-Nov-16 01:00N 37°51' E 023°31'0 0.1
2017-Nov-16 00:30N 37°51' E 023°31'0 0.0
2017-Nov-16 00:00N 37°51' E 023°31'0 0.1
2017-Nov-15 23:30N 37°51' E 023°31'0 0.0
2017-Nov-15 23:00N 37°51' E 023°31'0 0.0
2017-Nov-15 22:30N 37°51' E 023°31'0 0.0
2017-Nov-15 22:00N 37°51' E 023°31'0 0.0
2017-Nov-15 21:30N 37°51' E 023°31'0 0.1
2017-Nov-15 21:00N 37°51' E 023°31'0 0.1
2017-Nov-15 20:30N 37°51' E 023°31'0 0.1
2017-Nov-15 20:00N 37°51' E 023°31'0 0.1
2017-Nov-15 19:30N 37°51' E 023°31'0 0.0
2017-Nov-15 19:00N 37°51' E 023°31'0 0.0
2017-Nov-15 18:30N 37°51' E 023°31'0 0.0
2017-Nov-15 18:00N 37°51' E 023°31'0 0.0
2017-Nov-15 17:30N 37°51' E 023°31'0 0.2
2017-Nov-15 17:00N 37°51' E 023°31'0 0.0
2017-Nov-15 16:30N 37°51' E 023°31'0 0.1
2017-Nov-15 16:00N 37°51' E 023°31'0 0.0
2017-Nov-15 15:30N 37°51' E 023°31'0 0.1
2017-Nov-15 15:00N 37°51' E 023°32'0 0.0
2017-Nov-15 14:30N 37°51' E 023°32'0 0.1
2017-Nov-15 14:00N 37°51' E 023°32'0 0.0
2017-Nov-15 13:30N 37°51' E 023°32'0 0.3
2017-Nov-15 13:00N 37°51' E 023°32'0 0.1
2017-Nov-15 12:30N 37°51' E 023°32'0 0.0
2017-Nov-15 12:00N 37°51' E 023°32'0 0.3
2017-Nov-15 11:30N 37°51' E 023°32'0 0.4
2017-Nov-15 11:01N 37°51' E 023°31'0 0.0
2017-Nov-15 10:30N 37°51' E 023°32'0 0.0
2017-Nov-15 10:00N 37°51' E 023°31'0 0.0
2017-Nov-15 09:30N 37°51' E 023°31'0 0.1
2017-Nov-15 09:00N 37°51' E 023°31'0 0.1
2017-Nov-15 08:31N 37°51' E 023°31'0 0.1
2017-Nov-15 08:01N 37°51' E 023°31'0 0.1
2017-Nov-15 07:30N 37°51' E 023°31'0 0.1
2017-Nov-15 07:00N 37°51' E 023°31'0 0.1
2017-Nov-15 06:30N 37°51' E 023°31'0 0.1
2017-Nov-15 06:00N 37°51' E 023°31'0 0.2
2017-Nov-15 05:30N 37°51' E 023°31'0 0.1
2017-Nov-15 05:00N 37°51' E 023°31'0 0.1
2017-Nov-15 04:30N 37°51' E 023°31'0 0.2
2017-Nov-15 04:00N 37°51' E 023°32'2 3.8
2017-Nov-15 03:30N 37°51' E 023°34'3 6.8
2017-Nov-15 03:01N 37°51' E 023°38'4 8.5
2017-Nov-15 02:31N 37°47' E 023°41'5 9.3
2017-Nov-15 02:01N 37°43' E 023°44'5 9.9
2017-Nov-15 01:31N 37°39' E 023°46'510.0
2017-Nov-15 01:01N 37°34' E 023°48'  
2017-Nov-10 15:52N 32°57' E 034°38'410.2
2017-Nov-10 15:27N 32°57' E 034°43'510.4
2017-Nov-10 15:00N 32°56' E 034°49'510.8
2017-Nov-10 14:30N 32°54' E 034°55'611.5
2017-Nov-10 13:59N 32°51' E 035°01'8 0.4
2017-Nov-09 17:01N 32°53' E 034°52'0 9.6
2017-Nov-09 17:00N 32°53' E 034°52'  

Dump ship's entire track history